Minneapolis ARTCC

The Midwest's Air Route Traffic Control Center

KGOV Grayling Army Airfield
Grayling, MI
Current Weather Information

KGOV 112258Z AUTO 25005KT 7SM SCT024 OVC032 M03/M03 A2999 RMK AO2 SLP178 T10271030 PNO $


ICAO/IATA:
KGOV/GOV
Radar Facility:
ZMP
Conditions:
VFR
Airport Diagram:
KGOV
No charts of this type.
No charts of this type.
Online Controllers Split
No controllers online.
Flight OperationsView
ASH6325
Arrived
KMSP

KIAH
Weather Conditions
KMSP VFR29.91110/06
KRST VFR29.88110/07
KOMA VFR29.87210/03
KDLH LIFR29.91120/09
KGFK VFR29.83180/08
KFAR VFR29.85170/03
Charts Lookup
Today's Schedule
No scheduled ATC today.
All content © 2011-2018 by the VATSIM Minneapolis ARTCC unless previous or other copyright exists; images, logos or other content of that nature remain property of their respective copyright owners. All information contained on these pages are for flight simulation use only on the VATSIM network, and shall not be used for real-world navigation or aviation purposes. This site is in no way affiliated with the FAA, the real Minneapolis ARTCC, or any other governing aviation agency or group. All content contained herein is approved for use on the VATSIM Network. Source code copyright © 2018 Maius Wong, and the software on this website is protected by copyright law. This website is licensed to the Minneapolis ARTCC on VATSIM. Use by any other facility is prohibited. Banner images courtesy of Chris Lundberg, Shane VanHoven, and Tony Webster.